sensor_id;sensor_type;location;lat;lon;timestamp;pressure;altitude;pressure_sealevel;temperature;humidity
61014;BME280;46899;47.542;19.082;2023-04-15T00:00:28;99459.78;;;5.21;100.00
61014;BME280;46899;47.542;19.082;2023-04-15T00:03:31;99449.47;;;5.21;100.00
61014;BME280;46899;47.542;19.082;2023-04-15T00:06:36;99456.19;;;5.27;100.00
61014;BME280;46899;47.542;19.082;2023-04-15T00:09:40;99456.06;;;5.31;100.00
61014;BME280;46899;47.542;19.082;2023-04-15T00:12:42;99448.41;;;5.28;100.00
61014;BME280;46899;47.542;19.082;2023-04-15T00:15:45;99451.06;;;5.25;100.00
61014;BME280;46899;47.542;19.082;2023-04-15T00:18:48;99457.03;;;5.27;100.00
61014;BME280;46899;47.542;19.082;2023-04-15T00:21:51;99463.78;;;5.31;100.00
61014;BME280;46899;47.542;19.082;2023-04-15T00:24:53;99460.69;;;5.49;100.00
61014;BME280;46899;47.542;19.082;2023-04-15T00:27:56;99464.31;;;5.42;100.00
61014;BME280;46899;47.542;19.082;2023-04-15T00:30:58;99459.87;;;5.47;100.00
61014;BME280;46899;47.542;19.082;2023-04-15T00:34:01;99461.66;;;5.45;100.00
61014;BME280;46899;47.542;19.082;2023-04-15T00:37:03;99459.16;;;5.42;100.00
61014;BME280;46899;47.542;19.082;2023-04-15T00:40:06;99446.41;;;5.38;100.00
61014;BME280;46899;47.542;19.082;2023-04-15T00:43:13;99448.84;;;5.42;100.00
61014;BME280;46899;47.542;19.082;2023-04-15T00:46:15;99459.25;;;5.39;100.00
61014;BME280;46899;47.542;19.082;2023-04-15T00:49:18;99452.47;;;5.37;100.00
61014;BME280;46899;47.542;19.082;2023-04-15T00:52:21;99448.31;;;5.31;100.00
61014;BME280;46899;47.542;19.082;2023-04-15T00:55:25;99449.84;;;5.38;100.00
61014;BME280;46899;47.542;19.082;2023-04-15T00:58:28;99438.72;;;5.36;100.00
61014;BME280;46899;47.542;19.082;2023-04-15T01:01:30;99441.09;;;5.44;100.00
61014;BME280;46899;47.542;19.082;2023-04-15T01:04:33;99442.84;;;5.42;100.00
61014;BME280;46899;47.542;19.082;2023-04-15T01:07:36;99448.25;;;5.34;100.00
61014;BME280;46899;47.542;19.082;2023-04-15T01:10:39;99438.38;;;5.48;100.00
61014;BME280;46899;47.542;19.082;2023-04-15T01:13:41;99434.03;;;5.49;100.00
61014;BME280;46899;47.542;19.082;2023-04-15T01:16:44;99434.88;;;5.49;100.00
61014;BME280;46899;47.542;19.082;2023-04-15T01:19:47;99434.16;;;5.44;100.00
61014;BME280;46899;47.542;19.082;2023-04-15T01:22:50;99438.47;;;5.45;100.00
61014;BME280;46899;47.542;19.082;2023-04-15T01:25:52;99437.31;;;5.56;100.00
61014;BME280;46899;47.542;19.082;2023-04-15T01:28:56;99433.09;;;5.51;100.00
61014;BME280;46899;47.542;19.082;2023-04-15T01:31:59;99432.50;;;5.43;100.00
61014;BME280;46899;47.542;19.082;2023-04-15T01:35:02;99439.78;;;5.59;100.00
61014;BME280;46899;47.542;19.082;2023-04-15T01:38:05;99441.41;;;5.63;100.00
61014;BME280;46899;47.542;19.082;2023-04-15T01:41:08;99436.97;;;5.66;100.00
61014;BME280;46899;47.542;19.082;2023-04-15T01:44:11;99440.84;;;5.51;100.00
61014;BME280;46899;47.542;19.082;2023-04-15T01:47:14;99442.59;;;5.51;100.00
61014;BME280;46899;47.542;19.082;2023-04-15T01:50:16;99445.03;;;5.56;100.00
61014;BME280;46899;47.542;19.082;2023-04-15T01:53:19;99445.25;;;5.48;100.00
61014;BME280;46899;47.542;19.082;2023-04-15T01:56:22;99442.41;;;5.57;100.00
61014;BME280;46899;47.542;19.082;2023-04-15T01:59:29;99446.84;;;5.52;100.00
61014;BME280;46899;47.542;19.082;2023-04-15T02:02:33;99443.16;;;5.61;100.00
61014;BME280;46899;47.542;19.082;2023-04-15T02:05:36;99451.66;;;5.64;100.00
61014;BME280;46899;47.542;19.082;2023-04-15T02:08:38;99444.78;;;5.65;100.00
61014;BME280;46899;47.542;19.082;2023-04-15T02:11:41;99455.38;;;5.56;100.00
61014;BME280;46899;47.542;19.082;2023-04-15T02:14:44;99445.47;;;5.70;100.00
61014;BME280;46899;47.542;19.082;2023-04-15T02:17:47;99450.53;;;5.73;100.00
61014;BME280;46899;47.542;19.082;2023-04-15T02:20:52;99443.63;;;5.73;100.00
61014;BME280;46899;47.542;19.082;2023-04-15T02:23:55;99442.63;;;5.79;100.00
61014;BME280;46899;47.542;19.082;2023-04-15T02:26:57;99446.06;;;5.79;100.00
61014;BME280;46899;47.542;19.082;2023-04-15T02:30:00;99443.56;;;5.75;100.00
61014;BME280;46899;47.542;19.082;2023-04-15T02:33:03;99439.41;;;5.71;100.00
61014;BME280;46899;47.542;19.082;2023-04-15T02:36:06;99442.97;;;5.67;100.00
61014;BME280;46899;47.542;19.082;2023-04-15T02:39:09;99454.97;;;5.68;100.00
61014;BME280;46899;47.542;19.082;2023-04-15T02:42:13;99467.66;;;5.75;100.00
61014;BME280;46899;47.542;19.082;2023-04-15T02:45:16;99453.09;;;5.73;100.00
61014;BME280;46899;47.542;19.082;2023-04-15T02:48:20;99460.06;;;5.71;100.00
61014;BME280;46899;47.542;19.082;2023-04-15T02:51:23;99455.94;;;5.65;100.00
61014;BME280;46899;47.542;19.082;2023-04-15T02:54:26;99457.53;;;5.69;100.00
61014;BME280;46899;47.542;19.082;2023-04-15T02:57:31;99457.34;;;5.75;100.00
61014;BME280;46899;47.542;19.082;2023-04-15T03:00:35;99454.91;;;5.71;100.00
61014;BME280;46899;47.542;19.082;2023-04-15T03:03:37;99456.69;;;5.69;100.00
61014;BME280;46899;47.542;19.082;2023-04-15T03:06:45;99453.91;;;5.75;100.00
61014;BME280;46899;47.542;19.082;2023-04-15T03:09:47;99451.94;;;5.84;100.00
61014;BME280;46899;47.542;19.082;2023-04-15T03:12:50;99447.94;;;5.73;100.00
61014;BME280;46899;47.542;19.082;2023-04-15T03:15:53;99449.44;;;5.80;100.00
61014;BME280;46899;47.542;19.082;2023-04-15T03:18:57;99441.69;;;5.81;100.00
61014;BME280;46899;47.542;19.082;2023-04-15T03:21:59;99440.84;;;5.81;100.00
61014;BME280;46899;47.542;19.082;2023-04-15T03:25:02;99439.09;;;5.81;100.00
61014;BME280;46899;47.542;19.082;2023-04-15T03:28:06;99445.91;;;5.84;100.00
61014;BME280;46899;47.542;19.082;2023-04-15T03:31:09;99442.44;;;5.86;100.00
61014;BME280;46899;47.542;19.082;2023-04-15T03:34:12;99436.34;;;5.87;100.00
61014;BME280;46899;47.542;19.082;2023-04-15T03:37:14;99438.16;;;5.85;100.00
61014;BME280;46899;47.542;19.082;2023-04-15T03:40:17;99442.13;;;5.95;100.00
61014;BME280;46899;47.542;19.082;2023-04-15T03:43:19;99447.31;;;5.94;100.00
61014;BME280;46899;47.542;19.082;2023-04-15T03:46:22;99452.41;;;5.97;100.00
61014;BME280;46899;47.542;19.082;2023-04-15T03:49:25;99456.06;;;6.17;100.00
61014;BME280;46899;47.542;19.082;2023-04-15T03:52:27;99461.97;;;6.21;100.00
61014;BME280;46899;47.542;19.082;2023-04-15T03:55:30;99450.06;;;6.17;100.00
61014;BME280;46899;47.542;19.082;2023-04-15T03:58:32;99446.81;;;6.10;100.00
61014;BME280;46899;47.542;19.082;2023-04-15T04:01:35;99451.66;;;6.21;100.00
61014;BME280;46899;47.542;19.082;2023-04-15T04:04:38;99443.75;;;6.26;100.00
61014;BME280;46899;47.542;19.082;2023-04-15T04:07:40;99449.00;;;6.22;100.00
61014;BME280;46899;47.542;19.082;2023-04-15T04:10:43;99445.63;;;6.20;100.00
61014;BME280;46899;47.542;19.082;2023-04-15T04:13:46;99434.56;;;6.17;100.00
61014;BME280;46899;47.542;19.082;2023-04-15T04:16:49;99444.13;;;6.13;100.00
61014;BME280;46899;47.542;19.082;2023-04-15T04:19:51;99439.84;;;6.12;100.00
61014;BME280;46899;47.542;19.082;2023-04-15T04:22:54;99439.81;;;6.14;100.00
61014;BME280;46899;47.542;19.082;2023-04-15T04:25:57;99441.69;;;6.09;100.00
61014;BME280;46899;47.542;19.082;2023-04-15T04:28:59;99431.00;;;6.21;100.00
61014;BME280;46899;47.542;19.082;2023-04-15T04:32:02;99445.31;;;6.31;100.00
61014;BME280;46899;47.542;19.082;2023-04-15T04:35:05;99436.72;;;6.31;100.00
61014;BME280;46899;47.542;19.082;2023-04-15T04:38:08;99435.53;;;6.39;100.00
61014;BME280;46899;47.542;19.082;2023-04-15T04:41:10;99438.63;;;6.50;100.00
61014;BME280;46899;47.542;19.082;2023-04-15T04:44:13;99438.38;;;6.58;100.00
61014;BME280;46899;47.542;19.082;2023-04-15T04:47:15;99443.28;;;6.65;100.00
61014;BME280;46899;47.542;19.082;2023-04-15T04:50:18;99441.12;;;6.78;100.00
61014;BME280;46899;47.542;19.082;2023-04-15T04:53:20;99441.75;;;6.84;100.00
61014;BME280;46899;47.542;19.082;2023-04-15T04:56:23;99442.19;;;6.97;100.00
61014;BME280;46899;47.542;19.082;2023-04-15T04:59:25;99435.94;;;7.27;100.00
61014;BME280;46899;47.542;19.082;2023-04-15T05:02:28;99448.78;;;7.52;100.00
61014;BME280;46899;47.542;19.082;2023-04-15T05:05:30;99445.66;;;8.10;100.00
61014;BME280;46899;47.542;19.082;2023-04-15T05:08:33;99440.09;;;8.43;100.00
61014;BME280;46899;47.542;19.082;2023-04-15T05:11:35;99442.06;;;8.78;100.00
61014;BME280;46899;47.542;19.082;2023-04-15T05:14:38;99447.44;;;8.93;100.00
61014;BME280;46899;47.542;19.082;2023-04-15T05:17:41;99446.81;;;9.07;100.00
61014;BME280;46899;47.542;19.082;2023-04-15T05:20:43;99448.72;;;9.04;100.00
61014;BME280;46899;47.542;19.082;2023-04-15T05:23:46;99443.00;;;9.16;100.00
61014;BME280;46899;47.542;19.082;2023-04-15T05:26:48;99443.28;;;9.28;100.00
61014;BME280;46899;47.542;19.082;2023-04-15T05:29:51;99446.63;;;9.50;100.00
61014;BME280;46899;47.542;19.082;2023-04-15T05:32:53;99450.75;;;10.29;100.00
61014;BME280;46899;47.542;19.082;2023-04-15T05:35:56;99451.38;;;10.15;100.00
61014;BME280;46899;47.542;19.082;2023-04-15T05:38:58;99447.13;;;9.77;100.00
61014;BME280;46899;47.542;19.082;2023-04-15T05:42:01;99450.50;;;9.60;100.00
61014;BME280;46899;47.542;19.082;2023-04-15T05:45:04;99457.09;;;9.49;100.00
61014;BME280;46899;47.542;19.082;2023-04-15T05:48:10;99447.28;;;9.17;100.00
61014;BME280;46899;47.542;19.082;2023-04-15T05:51:14;99447.34;;;8.95;100.00
61014;BME280;46899;47.542;19.082;2023-04-15T05:54:16;99457.69;;;8.97;100.00
61014;BME280;46899;47.542;19.082;2023-04-15T05:57:21;99463.97;;;9.11;100.00
61014;BME280;46899;47.542;19.082;2023-04-15T06:00:24;99460.00;;;9.23;100.00
61014;BME280;46899;47.542;19.082;2023-04-15T06:03:27;99468.69;;;9.60;100.00
61014;BME280;46899;47.542;19.082;2023-04-15T06:06:30;99469.84;;;10.09;100.00
61014;BME280;46899;47.542;19.082;2023-04-15T06:09:33;99471.94;;;11.07;100.00
61014;BME280;46899;47.542;19.082;2023-04-15T06:12:36;99470.44;;;11.36;100.00
61014;BME280;46899;47.542;19.082;2023-04-15T06:15:39;99480.44;;;11.28;100.00
61014;BME280;46899;47.542;19.082;2023-04-15T06:18:41;99485.03;;;11.40;98.85
61014;BME280;46899;47.542;19.082;2023-04-15T06:21:44;99478.38;;;12.75;95.05
61014;BME280;46899;47.542;19.082;2023-04-15T06:24:47;99490.03;;;12.99;90.78
61014;BME280;46899;47.542;19.082;2023-04-15T06:27:51;99501.09;;;11.81;93.72
61014;BME280;46899;47.542;19.082;2023-04-15T06:30:54;99497.50;;;11.66;96.33
61014;BME280;46899;47.542;19.082;2023-04-15T06:33:57;99496.84;;;10.78;100.00
61014;BME280;46899;47.542;19.082;2023-04-15T06:36:59;99499.84;;;10.88;100.00
61014;BME280;46899;47.542;19.082;2023-04-15T06:40:03;99500.34;;;11.61;100.00
61014;BME280;46899;47.542;19.082;2023-04-15T06:43:06;99502.06;;;12.26;100.00
61014;BME280;46899;47.542;19.082;2023-04-15T06:46:09;99503.69;;;15.61;76.76
61014;BME280;46899;47.542;19.082;2023-04-15T06:49:12;99512.03;;;17.34;66.24
61014;BME280;46899;47.542;19.082;2023-04-15T06:52:15;99509.91;;;17.28;67.33
61014;BME280;46899;47.542;19.082;2023-04-15T06:55:18;99505.78;;;17.58;59.40
61014;BME280;46899;47.542;19.082;2023-04-15T06:58:21;99507.41;;;17.26;63.62
61014;BME280;46899;47.542;19.082;2023-04-15T07:01:23;99507.88;;;18.42;58.19
61014;BME280;46899;47.542;19.082;2023-04-15T07:04:26;99513.31;;;21.70;48.09
61014;BME280;46899;47.542;19.082;2023-04-15T07:07:29;99508.91;;;24.33;40.02
61014;BME280;46899;47.542;19.082;2023-04-15T07:10:32;99505.41;;;25.47;37.51
61014;BME280;46899;47.542;19.082;2023-04-15T07:13:37;99512.87;;;26.84;32.57
61014;BME280;46899;47.542;19.082;2023-04-15T07:16:39;99505.06;;;24.86;36.17
61014;BME280;46899;47.542;19.082;2023-04-15T07:19:42;99510.56;;;24.01;38.16
61014;BME280;46899;47.542;19.082;2023-04-15T07:22:45;99503.81;;;25.93;35.63
61014;BME280;46899;47.542;19.082;2023-04-15T07:25:47;99508.09;;;26.80;33.95
61014;BME280;46899;47.542;19.082;2023-04-15T07:28:50;99508.84;;;26.27;34.13
61014;BME280;46899;47.542;19.082;2023-04-15T07:31:53;99509.78;;;23.05;39.36
61014;BME280;46899;47.542;19.082;2023-04-15T07:34:56;99504.63;;;18.92;48.76
61014;BME280;46899;47.542;19.082;2023-04-15T07:37:58;99510.03;;;19.73;48.08
61014;BME280;46899;47.542;19.082;2023-04-15T07:41:01;99514.81;;;21.07;44.83
61014;BME280;46899;47.542;19.082;2023-04-15T07:44:04;99513.25;;;21.89;42.61
61014;BME280;46899;47.542;19.082;2023-04-15T07:47:06;99514.38;;;21.77;42.46
61014;BME280;46899;47.542;19.082;2023-04-15T07:50:09;99511.75;;;19.01;47.99
61014;BME280;46899;47.542;19.082;2023-04-15T07:53:12;99513.13;;;18.42;53.74
61014;BME280;46899;47.542;19.082;2023-04-15T07:56:15;99510.00;;;20.34;45.15
61014;BME280;46899;47.542;19.082;2023-04-15T07:59:18;99503.78;;;18.92;51.62
61014;BME280;46899;47.542;19.082;2023-04-15T08:02:24;99512.47;;;17.73;53.87
61014;BME280;46899;47.542;19.082;2023-04-15T08:05:28;99503.53;;;18.63;52.92
61014;BME280;46899;47.542;19.082;2023-04-15T08:08:30;99507.56;;;16.77;58.99
61014;BME280;46899;47.542;19.082;2023-04-15T08:11:34;99505.13;;;15.28;63.69
61014;BME280;46899;47.542;19.082;2023-04-15T08:14:38;99506.41;;;16.21;63.97
61014;BME280;46899;47.542;19.082;2023-04-15T08:17:40;99511.78;;;17.71;56.47
61014;BME280;46899;47.542;19.082;2023-04-15T08:20:43;99512.22;;;17.08;61.12
61014;BME280;46899;47.542;19.082;2023-04-15T08:23:46;99516.41;;;16.53;56.02
61014;BME280;46899;47.542;19.082;2023-04-15T08:26:49;99519.00;;;15.67;59.71
61014;BME280;46899;47.542;19.082;2023-04-15T08:29:52;99519.56;;;15.33;60.75
61014;BME280;46899;47.542;19.082;2023-04-15T08:32:54;99520.03;;;15.40;61.86
61014;BME280;46899;47.542;19.082;2023-04-15T08:35:57;99521.31;;;15.85;61.79
61014;BME280;46899;47.542;19.082;2023-04-15T08:39:00;99524.62;;;15.36;61.07
61014;BME280;46899;47.542;19.082;2023-04-15T08:42:04;99523.09;;;15.59;59.65
61014;BME280;46899;47.542;19.082;2023-04-15T08:45:09;99522.59;;;15.15;60.80
61014;BME280;46899;47.542;19.082;2023-04-15T08:48:13;99521.25;;;15.09;59.57
61014;BME280;46899;47.542;19.082;2023-04-15T08:51:18;99530.09;;;15.96;59.63
61014;BME280;46899;47.542;19.082;2023-04-15T08:54:21;99533.38;;;16.36;56.79
61014;BME280;46899;47.542;19.082;2023-04-15T08:57:27;99535.47;;;15.44;63.09
61014;BME280;46899;47.542;19.082;2023-04-15T09:00:30;99533.19;;;14.47;65.82
61014;BME280;46899;47.542;19.082;2023-04-15T09:03:32;99534.91;;;14.20;65.83
61014;BME280;46899;47.542;19.082;2023-04-15T09:06:36;99531.75;;;14.82;65.51
61014;BME280;46899;47.542;19.082;2023-04-15T09:09:40;99531.62;;;15.11;62.72
61014;BME280;46899;47.542;19.082;2023-04-15T09:12:43;99538.97;;;14.52;61.51
61014;BME280;46899;47.542;19.082;2023-04-15T09:15:46;99532.50;;;14.31;64.43
61014;BME280;46899;47.542;19.082;2023-04-15T09:18:48;99540.16;;;14.87;64.09
61014;BME280;46899;47.542;19.082;2023-04-15T09:21:52;99533.22;;;15.26;61.66
61014;BME280;46899;47.542;19.082;2023-04-15T09:24:59;99533.12;;;14.88;59.64
61014;BME280;46899;47.542;19.082;2023-04-15T09:28:02;99533.09;;;14.75;62.04
61014;BME280;46899;47.542;19.082;2023-04-15T09:31:05;99532.78;;;13.98;64.94
61014;BME280;46899;47.542;19.082;2023-04-15T09:34:08;99532.09;;;14.37;64.76
61014;BME280;46899;47.542;19.082;2023-04-15T09:37:11;99533.03;;;14.22;64.20
61014;BME280;46899;47.542;19.082;2023-04-15T09:40:39;99529.84;;;14.45;62.88
61014;BME280;46899;47.542;19.082;2023-04-15T09:43:42;99530.03;;;14.28;63.92
61014;BME280;46899;47.542;19.082;2023-04-15T09:46:44;99536.41;;;14.24;63.43
61014;BME280;46899;47.542;19.082;2023-04-15T09:49:57;99530.50;;;14.20;64.56
61014;BME280;46899;47.542;19.082;2023-04-15T09:52:59;99529.09;;;14.43;63.83
61014;BME280;46899;47.542;19.082;2023-04-15T09:56:05;99527.38;;;13.87;63.71
61014;BME280;46899;47.542;19.082;2023-04-15T09:59:09;99534.44;;;14.13;63.39
61014;BME280;46899;47.542;19.082;2023-04-15T10:02:12;99534.63;;;14.65;59.74
61014;BME280;46899;47.542;19.082;2023-04-15T10:05:15;99532.84;;;14.66;60.87
61014;BME280;46899;47.542;19.082;2023-04-15T10:08:19;99534.56;;;15.19;60.76
61014;BME280;46899;47.542;19.082;2023-04-15T10:11:25;99526.97;;;15.01;63.98
61014;BME280;46899;47.542;19.082;2023-04-15T10:14:33;99538.56;;;14.58;62.53
61014;BME280;46899;47.542;19.082;2023-04-15T10:17:36;99549.09;;;14.16;65.30
61014;BME280;46899;47.542;19.082;2023-04-15T10:20:39;99537.00;;;13.73;67.11
61014;BME280;46899;47.542;19.082;2023-04-15T10:23:42;99536.72;;;13.77;69.31
61014;BME280;46899;47.542;19.082;2023-04-15T10:26:46;99545.88;;;13.70;67.68
61014;BME280;46899;47.542;19.082;2023-04-15T10:29:49;99540.94;;;14.49;67.62
61014;BME280;46899;47.542;19.082;2023-04-15T10:32:52;99542.38;;;14.26;65.93
61014;BME280;46899;47.542;19.082;2023-04-15T10:35:55;99554.16;;;14.19;65.76
61014;BME280;46899;47.542;19.082;2023-04-15T10:38:58;99544.00;;;13.72;68.65
61014;BME280;46899;47.542;19.082;2023-04-15T10:42:11;99549.50;;;13.53;70.83
61014;BME280;46899;47.542;19.082;2023-04-15T10:45:17;99548.38;;;14.14;72.40
61014;BME280;46899;47.542;19.082;2023-04-15T10:48:20;99559.28;;;14.75;68.08
61014;BME280;46899;47.542;19.082;2023-04-15T10:51:25;99556.59;;;14.63;65.96
61014;BME280;46899;47.542;19.082;2023-04-15T10:57:34;99558.53;;;14.73;66.32
61014;BME280;46899;47.542;19.082;2023-04-15T11:00:39;99559.41;;;14.33;65.84
61014;BME280;46899;47.542;19.082;2023-04-15T11:03:41;99560.41;;;14.16;66.48
61014;BME280;46899;47.542;19.082;2023-04-15T11:06:45;99562.03;;;13.77;70.23
61014;BME280;46899;47.542;19.082;2023-04-15T11:09:47;99575.94;;;14.05;71.50
61014;BME280;46899;47.542;19.082;2023-04-15T11:12:51;99574.53;;;13.86;73.16
61014;BME280;46899;47.542;19.082;2023-04-15T11:15:57;99575.28;;;13.00;77.47
61014;BME280;46899;47.542;19.082;2023-04-15T11:19:00;99576.66;;;12.76;80.67
61014;BME280;46899;47.542;19.082;2023-04-15T11:22:10;99577.66;;;12.58;81.03
61014;BME280;46899;47.542;19.082;2023-04-15T11:25:22;99580.66;;;12.36;86.55
61014;BME280;46899;47.542;19.082;2023-04-15T11:28:26;99586.44;;;12.25;92.23
61014;BME280;46899;47.542;19.082;2023-04-15T11:31:29;99579.88;;;12.81;88.12
61014;BME280;46899;47.542;19.082;2023-04-15T11:34:32;99572.06;;;13.54;81.20
61014;BME280;46899;47.542;19.082;2023-04-15T11:37:37;99576.72;;;14.62;76.24
61014;BME280;46899;47.542;19.082;2023-04-15T11:40:40;99575.91;;;14.88;68.82
61014;BME280;46899;47.542;19.082;2023-04-15T11:43:46;99570.06;;;14.97;66.17
61014;BME280;46899;47.542;19.082;2023-04-15T11:46:49;99572.06;;;15.06;65.78
61014;BME280;46899;47.542;19.082;2023-04-15T11:49:52;99572.19;;;15.18;64.49
61014;BME280;46899;47.542;19.082;2023-04-15T11:52:55;99581.50;;;14.82;67.67
61014;BME280;46899;47.542;19.082;2023-04-15T11:55:58;99581.69;;;14.79;67.05
61014;BME280;46899;47.542;19.082;2023-04-15T11:59:00;99583.69;;;14.07;68.73
61014;BME280;46899;47.542;19.082;2023-04-15T12:02:10;99583.88;;;13.90;69.05
61014;BME280;46899;47.542;19.082;2023-04-15T12:05:13;99585.28;;;13.81;70.82
61014;BME280;46899;47.542;19.082;2023-04-15T12:08:15;99586.47;;;14.04;71.73
61014;BME280;46899;47.542;19.082;2023-04-15T12:11:26;99586.69;;;13.73;70.88
61014;BME280;46899;47.542;19.082;2023-04-15T12:14:32;99585.44;;;13.78;71.20
61014;BME280;46899;47.542;19.082;2023-04-15T12:17:35;99587.59;;;14.28;68.12
61014;BME280;46899;47.542;19.082;2023-04-15T12:20:53;99583.22;;;14.43;68.65
61014;BME280;46899;47.542;19.082;2023-04-15T12:23:56;99593.75;;;15.08;67.20
61014;BME280;46899;47.542;19.082;2023-04-15T12:27:05;99585.94;;;15.21;65.53
61014;BME280;46899;47.542;19.082;2023-04-15T12:30:08;99576.16;;;15.11;65.29
61014;BME280;46899;47.542;19.082;2023-04-15T12:33:12;99590.41;;;15.06;64.18
61014;BME280;46899;47.542;19.082;2023-04-15T12:36:15;99584.78;;;14.59;67.99
61014;BME280;46899;47.542;19.082;2023-04-15T12:39:20;99599.06;;;14.54;67.75
61014;BME280;46899;47.542;19.082;2023-04-15T12:42:23;99593.41;;;14.33;68.89
61014;BME280;46899;47.542;19.082;2023-04-15T12:45:26;99593.25;;;14.36;69.26
61014;BME280;46899;47.542;19.082;2023-04-15T12:48:31;99604.00;;;14.31;70.08
61014;BME280;46899;47.542;19.082;2023-04-15T12:51:34;99602.72;;;13.81;69.60
61014;BME280;46899;47.542;19.082;2023-04-15T12:54:37;99599.78;;;14.15;69.55
61014;BME280;46899;47.542;19.082;2023-04-15T12:57:40;99610.50;;;13.68;70.93
61014;BME280;46899;47.542;19.082;2023-04-15T13:00:43;99612.22;;;13.53;72.60
61014;BME280;46899;47.542;19.082;2023-04-15T13:03:46;99618.03;;;13.29;72.35
61014;BME280;46899;47.542;19.082;2023-04-15T13:06:49;99621.25;;;13.48;73.50
61014;BME280;46899;47.542;19.082;2023-04-15T13:09:52;99614.56;;;13.58;74.13
61014;BME280;46899;47.542;19.082;2023-04-15T13:12:55;99616.19;;;13.75;71.19
61014;BME280;46899;47.542;19.082;2023-04-15T13:15:58;99610.94;;;13.60;70.43
61014;BME280;46899;47.542;19.082;2023-04-15T13:19:01;99615.25;;;13.90;72.08
61014;BME280;46899;47.542;19.082;2023-04-15T13:22:03;99619.37;;;14.08;69.07
61014;BME280;46899;47.542;19.082;2023-04-15T13:25:06;99617.50;;;13.96;69.64
61014;BME280;46899;47.542;19.082;2023-04-15T13:28:12;99615.31;;;13.60;72.59
61014;BME280;46899;47.542;19.082;2023-04-15T13:31:15;99615.84;;;13.51;71.12
61014;BME280;46899;47.542;19.082;2023-04-15T13:34:17;99624.88;;;13.45;71.25
61014;BME280;46899;47.542;19.082;2023-04-15T13:37:24;99625.53;;;13.35;72.75
61014;BME280;46899;47.542;19.082;2023-04-15T13:40:27;99624.34;;;13.54;71.86
61014;BME280;46899;47.542;19.082;2023-04-15T13:43:30;99628.41;;;13.74;70.72
61014;BME280;46899;47.542;19.082;2023-04-15T13:46:34;99627.28;;;13.78;71.17
61014;BME280;46899;47.542;19.082;2023-04-15T13:49:37;99634.91;;;13.23;72.41
61014;BME280;46899;47.542;19.082;2023-04-15T13:52:39;99629.59;;;13.25;72.97
61014;BME280;46899;47.542;19.082;2023-04-15T13:55:42;99632.16;;;13.11;73.11
61014;BME280;46899;47.542;19.082;2023-04-15T13:58:45;99627.78;;;13.41;72.55
61014;BME280;46899;47.542;19.082;2023-04-15T14:01:48;99634.84;;;13.68;71.68
61014;BME280;46899;47.542;19.082;2023-04-15T14:04:51;99635.66;;;13.99;69.69
61014;BME280;46899;47.542;19.082;2023-04-15T14:07:54;99635.53;;;14.00;69.12
61014;BME280;46899;47.542;19.082;2023-04-15T14:10:56;99644.72;;;13.49;71.67
61014;BME280;46899;47.542;19.082;2023-04-15T14:13:59;99650.75;;;13.04;73.68
61014;BME280;46899;47.542;19.082;2023-04-15T14:17:02;99655.63;;;12.79;76.70
61014;BME280;46899;47.542;19.082;2023-04-15T14:20:08;99647.22;;;12.90;77.04
61014;BME280;46899;47.542;19.082;2023-04-15T14:23:11;99642.69;;;12.62;77.95
61014;BME280;46899;47.542;19.082;2023-04-15T14:26:13;99645.03;;;12.82;79.74
61014;BME280;46899;47.542;19.082;2023-04-15T14:29:16;99659.34;;;12.75;78.29
61014;BME280;46899;47.542;19.082;2023-04-15T14:32:19;99665.56;;;12.88;77.61
61014;BME280;46899;47.542;19.082;2023-04-15T14:35:22;99656.84;;;12.74;78.87
61014;BME280;46899;47.542;19.082;2023-04-15T14:38:27;99663.41;;;12.81;78.24
61014;BME280;46899;47.542;19.082;2023-04-15T14:41:29;99659.41;;;12.43;79.63
61014;BME280;46899;47.542;19.082;2023-04-15T14:44:32;99666.63;;;12.37;82.30
61014;BME280;46899;47.542;19.082;2023-04-15T14:47:34;99664.03;;;12.37;82.47
61014;BME280;46899;47.542;19.082;2023-04-15T14:50:37;99665.72;;;12.39;85.04
61014;BME280;46899;47.542;19.082;2023-04-15T14:53:40;99672.94;;;12.33;85.62
61014;BME280;46899;47.542;19.082;2023-04-15T14:56:42;99672.13;;;12.49;84.30
61014;BME280;46899;47.542;19.082;2023-04-15T14:59:45;99669.28;;;12.69;83.17
61014;BME280;46899;47.542;19.082;2023-04-15T15:02:48;99669.69;;;12.61;81.98
61014;BME280;46899;47.542;19.082;2023-04-15T15:05:51;99677.62;;;12.91;81.76
61014;BME280;46899;47.542;19.082;2023-04-15T15:08:53;99672.94;;;13.13;80.32
61014;BME280;46899;47.542;19.082;2023-04-15T15:11:56;99680.75;;;13.13;79.96
61014;BME280;46899;47.542;19.082;2023-04-15T15:14:59;99673.66;;;12.84;79.97
61014;BME280;46899;47.542;19.082;2023-04-15T15:18:06;99684.00;;;12.70;79.99
61014;BME280;46899;47.542;19.082;2023-04-15T15:21:09;99687.97;;;12.61;80.20
61014;BME280;46899;47.542;19.082;2023-04-15T15:24:12;99687.87;;;12.63;80.45
61014;BME280;46899;47.542;19.082;2023-04-15T15:27:14;99692.00;;;12.51;82.64
61014;BME280;46899;47.542;19.082;2023-04-15T15:30:17;99693.25;;;12.44;81.28
61014;BME280;46899;47.542;19.082;2023-04-15T15:33:19;99694.59;;;12.18;81.44
61014;BME280;46899;47.542;19.082;2023-04-15T15:36:22;99700.41;;;12.08;79.47
61014;BME280;46899;47.542;19.082;2023-04-15T15:39:24;99706.47;;;11.91;78.04
61014;BME280;46899;47.542;19.082;2023-04-15T15:42:29;99707.53;;;11.87;79.14
61014;BME280;46899;47.542;19.082;2023-04-15T15:45:32;99708.47;;;11.86;79.17
61014;BME280;46899;47.542;19.082;2023-04-15T15:48:35;99716.03;;;11.91;80.48
61014;BME280;46899;47.542;19.082;2023-04-15T15:51:37;99723.16;;;12.04;79.69
61014;BME280;46899;47.542;19.082;2023-04-15T15:54:40;99722.88;;;11.93;82.41
61014;BME280;46899;47.542;19.082;2023-04-15T15:57:43;99726.00;;;12.00;82.64
61014;BME280;46899;47.542;19.082;2023-04-15T16:00:46;99735.69;;;11.98;84.08